sensor_id;sensor_type;location;lat;lon;timestamp;pressure;altitude;pressure_sealevel;temperature;humidity
11049;BME280;5577;42.706;23.160;2023-07-31T00:02:25;93873.34;;;20.69;100.00
11049;BME280;5577;42.706;23.160;2023-07-31T00:05:09;93866.34;;;20.56;100.00
11049;BME280;5577;42.706;23.160;2023-07-31T00:07:53;93866.53;;;20.45;100.00
11049;BME280;5577;42.706;23.160;2023-07-31T00:10:38;93867.31;;;20.26;100.00
11049;BME280;5577;42.706;23.160;2023-07-31T00:13:22;93870.16;;;20.16;100.00
11049;BME280;5577;42.706;23.160;2023-07-31T00:16:07;93862.06;;;20.19;100.00
11049;BME280;5577;42.706;23.160;2023-07-31T00:18:51;93861.97;;;20.23;100.00
11049;BME280;5577;42.706;23.160;2023-07-31T00:21:35;93845.56;;;20.17;100.00
11049;BME280;5577;42.706;23.160;2023-07-31T00:24:19;93857.25;;;20.30;100.00
11049;BME280;5577;42.706;23.160;2023-07-31T00:27:03;93857.09;;;20.37;100.00
11049;BME280;5577;42.706;23.160;2023-07-31T00:29:47;93855.44;;;20.43;100.00
11049;BME280;5577;42.706;23.160;2023-07-31T00:32:31;93841.78;;;20.54;100.00
11049;BME280;5577;42.706;23.160;2023-07-31T00:35:15;93843.81;;;20.66;100.00
11049;BME280;5577;42.706;23.160;2023-07-31T00:37:59;93841.84;;;20.70;100.00
11049;BME280;5577;42.706;23.160;2023-07-31T00:40:43;93835.44;;;20.64;100.00
11049;BME280;5577;42.706;23.160;2023-07-31T00:43:27;93842.13;;;20.56;100.00
11049;BME280;5577;42.706;23.160;2023-07-31T00:46:11;93831.53;;;20.49;100.00
11049;BME280;5577;42.706;23.160;2023-07-31T00:48:56;93844.19;;;20.48;100.00
11049;BME280;5577;42.706;23.160;2023-07-31T00:51:40;93836.22;;;20.45;100.00
11049;BME280;5577;42.706;23.160;2023-07-31T00:54:25;93820.81;;;20.45;100.00
11049;BME280;5577;42.706;23.160;2023-07-31T00:57:10;93813.03;;;20.31;100.00
11049;BME280;5577;42.706;23.160;2023-07-31T00:59:54;93826.84;;;20.33;100.00
11049;BME280;5577;42.706;23.160;2023-07-31T01:02:38;93834.09;;;20.36;100.00
11049;BME280;5577;42.706;23.160;2023-07-31T01:05:33;93827.16;;;20.35;100.00
11049;BME280;5577;42.706;23.160;2023-07-31T01:08:49;93823.53;;;20.26;100.00
11049;BME280;5577;42.706;23.160;2023-07-31T01:11:31;93825.38;;;20.29;100.00
11049;BME280;5577;42.706;23.160;2023-07-31T01:14:17;93819.78;;;20.20;100.00
11049;BME280;5577;42.706;23.160;2023-07-31T01:17:00;93816.69;;;20.21;100.00
11049;BME280;5577;42.706;23.160;2023-07-31T01:19:45;93819.59;;;20.30;100.00
11049;BME280;5577;42.706;23.160;2023-07-31T01:22:58;93812.72;;;20.29;100.00
11049;BME280;5577;42.706;23.160;2023-07-31T01:31:54;93823.88;;;20.28;100.00
11049;BME280;5577;42.706;23.160;2023-07-31T01:34:39;93818.41;;;20.31;100.00
11049;BME280;5577;42.706;23.160;2023-07-31T01:37:28;93805.47;;;20.26;100.00
11049;BME280;5577;42.706;23.160;2023-07-31T01:40:13;93818.78;;;20.33;100.00
11049;BME280;5577;42.706;23.160;2023-07-31T01:42:57;93820.69;;;20.33;100.00
11049;BME280;5577;42.706;23.160;2023-07-31T01:45:41;93820.41;;;20.47;100.00
11049;BME280;5577;42.706;23.160;2023-07-31T01:48:25;93824.13;;;20.53;100.00
11049;BME280;5577;42.706;23.160;2023-07-31T01:51:09;93821.72;;;20.58;100.00
11049;BME280;5577;42.706;23.160;2023-07-31T01:53:53;93821.38;;;20.56;100.00
11049;BME280;5577;42.706;23.160;2023-07-31T01:56:37;93816.75;;;20.57;100.00
11049;BME280;5577;42.706;23.160;2023-07-31T01:59:21;93819.66;;;20.46;100.00
11049;BME280;5577;42.706;23.160;2023-07-31T02:02:05;93800.28;;;20.35;100.00
11049;BME280;5577;42.706;23.160;2023-07-31T02:04:49;93832.88;;;20.57;100.00
11049;BME280;5577;42.706;23.160;2023-07-31T02:07:33;93829.03;;;20.58;100.00
11049;BME280;5577;42.706;23.160;2023-07-31T02:10:17;93824.31;;;20.62;100.00
11049;BME280;5577;42.706;23.160;2023-07-31T02:13:01;93798.28;;;20.39;100.00
11049;BME280;5577;42.706;23.160;2023-07-31T02:15:47;93814.69;;;20.64;100.00
11049;BME280;5577;42.706;23.160;2023-07-31T02:18:31;93821.88;;;20.51;100.00
11049;BME280;5577;42.706;23.160;2023-07-31T02:21:15;93825.72;;;20.50;100.00
11049;BME280;5577;42.706;23.160;2023-07-31T02:23:59;93817.59;;;20.54;100.00
11049;BME280;5577;42.706;23.160;2023-07-31T02:26:43;93814.44;;;20.75;100.00
11049;BME280;5577;42.706;23.160;2023-07-31T02:29:27;93812.63;;;20.88;100.00
11049;BME280;5577;42.706;23.160;2023-07-31T02:32:11;93814.22;;;20.85;100.00
11049;BME280;5577;42.706;23.160;2023-07-31T02:34:55;93813.19;;;20.79;100.00
11049;BME280;5577;42.706;23.160;2023-07-31T02:37:39;93817.13;;;20.75;100.00
11049;BME280;5577;42.706;23.160;2023-07-31T02:40:23;93820.84;;;20.81;100.00
11049;BME280;5577;42.706;23.160;2023-07-31T02:43:07;93827.47;;;20.76;100.00
11049;BME280;5577;42.706;23.160;2023-07-31T02:45:52;93831.69;;;20.77;100.00
11049;BME280;5577;42.706;23.160;2023-07-31T02:48:36;93830.03;;;20.83;100.00
11049;BME280;5577;42.706;23.160;2023-07-31T02:51:20;93818.13;;;20.65;100.00
11049;BME280;5577;42.706;23.160;2023-07-31T02:54:05;93838.91;;;20.80;100.00
11049;BME280;5577;42.706;23.160;2023-07-31T02:56:49;93846.22;;;20.80;100.00
11049;BME280;5577;42.706;23.160;2023-07-31T02:59:33;93842.94;;;20.72;100.00
11049;BME280;5577;42.706;23.160;2023-07-31T03:02:16;93835.19;;;20.74;100.00
11049;BME280;5577;42.706;23.160;2023-07-31T03:05:00;93842.84;;;20.76;100.00
11049;BME280;5577;42.706;23.160;2023-07-31T03:07:44;93840.41;;;20.65;100.00
11049;BME280;5577;42.706;23.160;2023-07-31T03:10:28;93837.44;;;20.60;100.00
11049;BME280;5577;42.706;23.160;2023-07-31T03:13:12;93833.78;;;20.70;100.00
11049;BME280;5577;42.706;23.160;2023-07-31T03:15:56;93837.34;;;20.63;100.00
11049;BME280;5577;42.706;23.160;2023-07-31T03:18:40;93838.03;;;20.67;100.00
11049;BME280;5577;42.706;23.160;2023-07-31T03:21:24;93849.00;;;20.76;100.00
11049;BME280;5577;42.706;23.160;2023-07-31T03:24:08;93834.34;;;20.61;100.00
11049;BME280;5577;42.706;23.160;2023-07-31T03:26:52;93853.44;;;20.67;100.00
11049;BME280;5577;42.706;23.160;2023-07-31T03:29:36;93856.88;;;20.67;100.00
11049;BME280;5577;42.706;23.160;2023-07-31T03:32:20;93860.09;;;20.59;100.00
11049;BME280;5577;42.706;23.160;2023-07-31T03:35:04;93856.69;;;20.58;100.00
11049;BME280;5577;42.706;23.160;2023-07-31T03:37:49;93867.50;;;20.55;100.00
11049;BME280;5577;42.706;23.160;2023-07-31T03:40:33;93867.03;;;20.60;100.00
11049;BME280;5577;42.706;23.160;2023-07-31T03:43:17;93873.84;;;20.64;100.00
11049;BME280;5577;42.706;23.160;2023-07-31T03:46:01;93867.75;;;20.60;100.00
11049;BME280;5577;42.706;23.160;2023-07-31T03:48:45;93871.72;;;20.56;100.00
11049;BME280;5577;42.706;23.160;2023-07-31T03:51:29;93869.44;;;20.54;100.00
11049;BME280;5577;42.706;23.160;2023-07-31T03:54:13;93872.47;;;20.56;100.00
11049;BME280;5577;42.706;23.160;2023-07-31T03:56:57;93892.31;;;20.62;100.00
11049;BME280;5577;42.706;23.160;2023-07-31T03:59:41;93872.06;;;20.58;100.00
11049;BME280;5577;42.706;23.160;2023-07-31T04:02:25;93875.41;;;20.62;100.00
11049;BME280;5577;42.706;23.160;2023-07-31T04:05:09;93880.13;;;20.58;100.00
11049;BME280;5577;42.706;23.160;2023-07-31T04:07:55;93881.16;;;20.64;100.00
11049;BME280;5577;42.706;23.160;2023-07-31T04:10:39;93858.53;;;20.61;100.00
11049;BME280;5577;42.706;23.160;2023-07-31T04:13:23;93875.22;;;20.72;100.00
11049;BME280;5577;42.706;23.160;2023-07-31T04:16:07;93880.09;;;20.77;100.00
11049;BME280;5577;42.706;23.160;2023-07-31T04:18:51;93887.75;;;20.79;100.00
11049;BME280;5577;42.706;23.160;2023-07-31T04:21:35;93893.56;;;20.77;100.00
11049;BME280;5577;42.706;23.160;2023-07-31T04:24:19;93892.97;;;20.70;100.00
11049;BME280;5577;42.706;23.160;2023-07-31T04:27:08;93889.00;;;20.74;100.00
11049;BME280;5577;42.706;23.160;2023-07-31T04:29:52;93897.44;;;20.76;100.00
11049;BME280;5577;42.706;23.160;2023-07-31T04:32:35;93895.38;;;20.84;100.00
11049;BME280;5577;42.706;23.160;2023-07-31T04:35:19;93888.13;;;20.81;100.00
11049;BME280;5577;42.706;23.160;2023-07-31T04:38:03;93888.28;;;20.93;100.00
11049;BME280;5577;42.706;23.160;2023-07-31T04:40:48;93890.56;;;21.11;100.00
11049;BME280;5577;42.706;23.160;2023-07-31T04:43:32;93894.50;;;21.26;100.00
11049;BME280;5577;42.706;23.160;2023-07-31T04:46:16;93858.78;;;21.06;100.00
11049;BME280;5577;42.706;23.160;2023-07-31T04:49:00;93890.63;;;21.43;100.00
11049;BME280;5577;42.706;23.160;2023-07-31T04:51:44;93881.22;;;21.51;100.00
11049;BME280;5577;42.706;23.160;2023-07-31T04:54:28;93887.44;;;21.64;100.00
11049;BME280;5577;42.706;23.160;2023-07-31T04:57:12;93869.34;;;21.64;100.00
11049;BME280;5577;42.706;23.160;2023-07-31T04:59:56;93879.69;;;21.66;100.00
11049;BME280;5577;42.706;23.160;2023-07-31T05:02:40;93878.25;;;21.61;100.00
11049;BME280;5577;42.706;23.160;2023-07-31T05:05:24;93879.63;;;21.69;100.00
11049;BME280;5577;42.706;23.160;2023-07-31T05:08:08;93873.56;;;21.81;100.00
11049;BME280;5577;42.706;23.160;2023-07-31T05:10:51;93872.22;;;21.89;100.00
11049;BME280;5577;42.706;23.160;2023-07-31T05:13:35;93883.16;;;21.82;100.00
11049;BME280;5577;42.706;23.160;2023-07-31T05:16:19;93876.16;;;21.85;100.00
11049;BME280;5577;42.706;23.160;2023-07-31T05:19:03;93881.66;;;21.81;100.00
11049;BME280;5577;42.706;23.160;2023-07-31T05:21:47;93879.63;;;21.85;100.00
11049;BME280;5577;42.706;23.160;2023-07-31T05:24:31;93884.59;;;21.87;100.00
11049;BME280;5577;42.706;23.160;2023-07-31T05:27:15;93878.50;;;21.99;100.00
11049;BME280;5577;42.706;23.160;2023-07-31T05:30:02;93876.31;;;22.10;100.00
11049;BME280;5577;42.706;23.160;2023-07-31T05:32:46;93871.84;;;22.19;100.00
11049;BME280;5577;42.706;23.160;2023-07-31T05:35:30;93872.81;;;22.25;100.00
11049;BME280;5577;42.706;23.160;2023-07-31T05:38:14;93881.47;;;22.33;100.00
11049;BME280;5577;42.706;23.160;2023-07-31T05:40:58;93868.00;;;22.49;100.00
11049;BME280;5577;42.706;23.160;2023-07-31T05:43:42;93866.53;;;22.44;100.00
11049;BME280;5577;42.706;23.160;2023-07-31T05:46:27;93867.56;;;22.51;100.00
11049;BME280;5577;42.706;23.160;2023-07-31T05:49:11;93860.22;;;22.51;100.00
11049;BME280;5577;42.706;23.160;2023-07-31T05:51:55;93868.81;;;22.46;100.00
11049;BME280;5577;42.706;23.160;2023-07-31T05:54:38;93875.25;;;22.36;100.00
11049;BME280;5577;42.706;23.160;2023-07-31T05:57:22;93861.56;;;22.14;100.00
11049;BME280;5577;42.706;23.160;2023-07-31T06:00:07;93882.50;;;22.23;100.00
11049;BME280;5577;42.706;23.160;2023-07-31T06:02:51;93879.56;;;22.33;100.00
11049;BME280;5577;42.706;23.160;2023-07-31T06:05:35;93882.66;;;22.32;100.00
11049;BME280;5577;42.706;23.160;2023-07-31T06:08:19;93879.41;;;22.24;100.00
11049;BME280;5577;42.706;23.160;2023-07-31T06:11:03;93886.06;;;22.20;100.00
11049;BME280;5577;42.706;23.160;2023-07-31T06:13:47;93883.66;;;22.09;100.00
11049;BME280;5577;42.706;23.160;2023-07-31T06:16:32;93895.38;;;22.03;100.00
11049;BME280;5577;42.706;23.160;2023-07-31T06:19:16;93901.97;;;21.86;100.00
11049;BME280;5577;42.706;23.160;2023-07-31T06:22:00;93891.19;;;21.86;100.00
11049;BME280;5577;42.706;23.160;2023-07-31T06:24:45;93895.03;;;22.01;100.00
11049;BME280;5577;42.706;23.160;2023-07-31T06:27:28;93894.84;;;22.24;100.00
11049;BME280;5577;42.706;23.160;2023-07-31T06:30:12;93902.28;;;22.49;100.00
11049;BME280;5577;42.706;23.160;2023-07-31T06:32:56;93902.94;;;22.53;100.00
11049;BME280;5577;42.706;23.160;2023-07-31T06:35:40;93900.69;;;22.51;100.00
11049;BME280;5577;42.706;23.160;2023-07-31T06:38:25;93897.16;;;22.67;100.00
11049;BME280;5577;42.706;23.160;2023-07-31T06:41:10;93900.06;;;23.01;100.00
11049;BME280;5577;42.706;23.160;2023-07-31T06:43:54;93891.09;;;23.04;100.00
11049;BME280;5577;42.706;23.160;2023-07-31T06:46:38;93891.75;;;22.95;100.00
11049;BME280;5577;42.706;23.160;2023-07-31T06:49:21;93898.63;;;22.84;100.00
11049;BME280;5577;42.706;23.160;2023-07-31T06:52:06;93889.06;;;22.67;100.00
11049;BME280;5577;42.706;23.160;2023-07-31T06:55:17;93888.44;;;22.46;100.00
11049;BME280;5577;42.706;23.160;2023-07-31T06:58:02;93909.13;;;22.37;100.00
11049;BME280;5577;42.706;23.160;2023-07-31T07:00:46;93893.88;;;22.30;100.00
11049;BME280;5577;42.706;23.160;2023-07-31T07:03:30;93891.78;;;22.38;100.00
11049;BME280;5577;42.706;23.160;2023-07-31T07:06:14;93895.63;;;22.53;100.00
11049;BME280;5577;42.706;23.160;2023-07-31T07:08:58;93877.53;;;22.66;100.00
11049;BME280;5577;42.706;23.160;2023-07-31T07:11:42;93886.84;;;22.90;100.00
11049;BME280;5577;42.706;23.160;2023-07-31T07:14:26;93879.66;;;23.00;100.00
11049;BME280;5577;42.706;23.160;2023-07-31T07:17:10;93897.03;;;23.11;100.00
11049;BME280;5577;42.706;23.160;2023-07-31T07:19:54;93835.25;;;22.76;100.00
11049;BME280;5577;42.706;23.160;2023-07-31T07:22:39;93884.97;;;23.16;100.00
11049;BME280;5577;42.706;23.160;2023-07-31T07:25:25;93891.00;;;23.20;100.00
11049;BME280;5577;42.706;23.160;2023-07-31T07:28:09;93882.06;;;23.35;100.00
11049;BME280;5577;42.706;23.160;2023-07-31T07:30:54;93874.59;;;23.64;100.00
11049;BME280;5577;42.706;23.160;2023-07-31T07:33:37;93884.56;;;23.55;100.00
11049;BME280;5577;42.706;23.160;2023-07-31T07:36:21;93882.47;;;23.21;100.00
11049;BME280;5577;42.706;23.160;2023-07-31T07:39:05;93885.03;;;22.87;100.00
11049;BME280;5577;42.706;23.160;2023-07-31T07:41:49;93887.75;;;22.87;100.00
11049;BME280;5577;42.706;23.160;2023-07-31T07:44:33;93882.59;;;23.18;100.00
11049;BME280;5577;42.706;23.160;2023-07-31T07:47:17;93890.81;;;23.39;100.00
11049;BME280;5577;42.706;23.160;2023-07-31T07:50:01;93895.91;;;23.50;100.00
11049;BME280;5577;42.706;23.160;2023-07-31T07:52:45;93889.88;;;23.46;100.00
11049;BME280;5577;42.706;23.160;2023-07-31T07:55:29;93890.41;;;23.28;100.00
11049;BME280;5577;42.706;23.160;2023-07-31T07:58:13;93882.06;;;23.23;100.00
11049;BME280;5577;42.706;23.160;2023-07-31T08:00:57;93901.84;;;23.57;100.00
11049;BME280;5577;42.706;23.160;2023-07-31T08:03:41;93896.53;;;23.91;100.00
11049;BME280;5577;42.706;23.160;2023-07-31T08:06:24;93896.00;;;23.96;100.00
11049;BME280;5577;42.706;23.160;2023-07-31T08:09:08;93897.41;;;23.76;100.00
11049;BME280;5577;42.706;23.160;2023-07-31T08:11:52;93887.56;;;23.82;100.00
11049;BME280;5577;42.706;23.160;2023-07-31T08:14:36;93911.13;;;24.06;100.00
11049;BME280;5577;42.706;23.160;2023-07-31T08:17:20;93889.59;;;23.90;100.00
11049;BME280;5577;42.706;23.160;2023-07-31T08:20:05;93908.19;;;24.13;100.00
11049;BME280;5577;42.706;23.160;2023-07-31T08:22:49;93905.22;;;24.33;100.00
11049;BME280;5577;42.706;23.160;2023-07-31T08:25:37;93904.50;;;24.20;100.00
11049;BME280;5577;42.706;23.160;2023-07-31T08:28:21;93900.09;;;23.88;100.00
11049;BME280;5577;42.706;23.160;2023-07-31T08:31:05;93890.03;;;23.89;100.00
11049;BME280;5577;42.706;23.160;2023-07-31T08:33:49;93894.56;;;24.17;100.00
11049;BME280;5577;42.706;23.160;2023-07-31T08:36:33;93894.72;;;24.35;100.00
11049;BME280;5577;42.706;23.160;2023-07-31T08:39:17;93901.31;;;24.55;100.00
11049;BME280;5577;42.706;23.160;2023-07-31T08:42:01;93892.91;;;24.53;100.00
11049;BME280;5577;42.706;23.160;2023-07-31T08:44:46;93895.81;;;25.02;100.00
11049;BME280;5577;42.706;23.160;2023-07-31T08:47:31;93889.16;;;25.16;98.48
11049;BME280;5577;42.706;23.160;2023-07-31T08:50:18;93884.44;;;25.07;98.71
11049;BME280;5577;42.706;23.160;2023-07-31T08:53:03;93891.59;;;25.01;98.97
11049;BME280;5577;42.706;23.160;2023-07-31T08:55:48;93883.91;;;25.21;93.87
11049;BME280;5577;42.706;23.160;2023-07-31T08:58:34;93888.00;;;25.56;92.41
11049;BME280;5577;42.706;23.160;2023-07-31T09:01:19;93878.28;;;25.86;93.81
11049;BME280;5577;42.706;23.160;2023-07-31T09:04:04;93888.50;;;25.82;93.14
11049;BME280;5577;42.706;23.160;2023-07-31T09:06:49;93890.59;;;26.17;88.25
11049;BME280;5577;42.706;23.160;2023-07-31T09:09:34;93895.72;;;26.24;87.67
11049;BME280;5577;42.706;23.160;2023-07-31T09:12:18;93814.44;;;26.03;89.74
11049;BME280;5577;42.706;23.160;2023-07-31T09:15:03;93891.84;;;26.79;83.41
11049;BME280;5577;42.706;23.160;2023-07-31T09:17:47;93887.31;;;26.67;81.32
11049;BME280;5577;42.706;23.160;2023-07-31T09:20:32;93883.38;;;26.77;80.30
11049;BME280;5577;42.706;23.160;2023-07-31T09:23:17;93882.00;;;27.00;79.99
11049;BME280;5577;42.706;23.160;2023-07-31T09:26:02;93870.56;;;26.69;80.64
11049;BME280;5577;42.706;23.160;2023-07-31T09:28:46;93881.03;;;27.21;79.20
11049;BME280;5577;42.706;23.160;2023-07-31T09:31:40;93872.75;;;27.15;79.84
11049;BME280;5577;42.706;23.160;2023-07-31T09:34:30;93880.44;;;27.26;76.82
11049;BME280;5577;42.706;23.160;2023-07-31T09:37:20;93868.94;;;27.73;81.64
11049;BME280;5577;42.706;23.160;2023-07-31T09:40:04;93871.63;;;27.82;70.03
11049;BME280;5577;42.706;23.160;2023-07-31T09:42:48;93865.91;;;28.03;68.99
11049;BME280;5577;42.706;23.160;2023-07-31T09:45:41;93830.84;;;27.40;69.93
11049;BME280;5577;42.706;23.160;2023-07-31T09:48:25;93885.75;;;27.62;66.37
11049;BME280;5577;42.706;23.160;2023-07-31T09:51:11;93877.47;;;27.89;67.49
11049;BME280;5577;42.706;23.160;2023-07-31T09:53:55;93880.47;;;28.24;68.25
11049;BME280;5577;42.706;23.160;2023-07-31T09:56:49;93869.13;;;28.40;64.38
11049;BME280;5577;42.706;23.160;2023-07-31T09:59:33;93870.41;;;28.30;65.59
11049;BME280;5577;42.706;23.160;2023-07-31T10:02:22;93864.69;;;28.51;65.12
11049;BME280;5577;42.706;23.160;2023-07-31T10:05:07;93862.88;;;28.86;61.26
11049;BME280;5577;42.706;23.160;2023-07-31T10:07:54;93856.53;;;29.04;60.84
11049;BME280;5577;42.706;23.160;2023-07-31T10:10:42;93858.19;;;29.01;58.61
11049;BME280;5577;42.706;23.160;2023-07-31T10:13:27;93816.16;;;28.26;59.12
11049;BME280;5577;42.706;23.160;2023-07-31T10:16:13;93849.38;;;28.54;60.46
11049;BME280;5577;42.706;23.160;2023-07-31T10:18:58;93849.81;;;28.90;58.43
11049;BME280;5577;42.706;23.160;2023-07-31T10:21:43;93850.69;;;28.44;60.53
11049;BME280;5577;42.706;23.160;2023-07-31T10:24:29;93849.88;;;28.05;61.33
11049;BME280;5577;42.706;23.160;2023-07-31T10:27:13;93846.56;;;28.48;59.61
11049;BME280;5577;42.706;23.160;2023-07-31T10:29:58;93849.31;;;28.77;58.36
11049;BME280;5577;42.706;23.160;2023-07-31T10:32:44;93843.81;;;29.30;54.38
11049;BME280;5577;42.706;23.160;2023-07-31T10:35:29;93845.47;;;29.56;55.02
11049;BME280;5577;42.706;23.160;2023-07-31T10:38:13;93835.38;;;29.13;53.08
11049;BME280;5577;42.706;23.160;2023-07-31T10:41:08;93846.41;;;29.53;50.56
11049;BME280;5577;42.706;23.160;2023-07-31T10:43:56;93810.47;;;29.20;48.79
11049;BME280;5577;42.706;23.160;2023-07-31T10:46:40;93831.06;;;29.70;52.50
11049;BME280;5577;42.706;23.160;2023-07-31T10:49:24;93840.00;;;30.05;46.34
11049;BME280;5577;42.706;23.160;2023-07-31T10:52:13;93839.81;;;30.49;46.43
11049;BME280;5577;42.706;23.160;2023-07-31T10:58:12;93826.75;;;32.03;42.66
11049;BME280;5577;42.706;23.160;2023-07-31T11:01:02;93827.31;;;32.23;41.73
11049;BME280;5577;42.706;23.160;2023-07-31T11:03:49;93816.31;;;32.12;42.86
11049;BME280;5577;42.706;23.160;2023-07-31T11:06:36;93822.75;;;32.04;42.35
11049;BME280;5577;42.706;23.160;2023-07-31T11:09:20;93815.38;;;32.21;40.61
11049;BME280;5577;42.706;23.160;2023-07-31T11:12:04;93825.28;;;31.71;43.00
11049;BME280;5577;42.706;23.160;2023-07-31T11:14:55;93821.84;;;31.14;43.66
11049;BME280;5577;42.706;23.160;2023-07-31T11:17:39;93819.28;;;29.79;48.14
11049;BME280;5577;42.706;23.160;2023-07-31T11:20:28;93819.63;;;31.43;46.82
11049;BME280;5577;42.706;23.160;2023-07-31T11:23:16;93820.19;;;30.96;46.82
11049;BME280;5577;42.706;23.160;2023-07-31T11:26:00;93820.44;;;31.55;43.29
11049;BME280;5577;42.706;23.160;2023-07-31T11:28:49;93827.75;;;30.81;45.20
11049;BME280;5577;42.706;23.160;2023-07-31T11:31:33;93822.88;;;30.25;47.07
11049;BME280;5577;42.706;23.160;2023-07-31T11:34:23;93825.91;;;29.72;47.67
11049;BME280;5577;42.706;23.160;2023-07-31T11:37:07;93823.09;;;29.52;49.95
11049;BME280;5577;42.706;23.160;2023-07-31T11:40:00;93818.94;;;29.71;50.11
11049;BME280;5577;42.706;23.160;2023-07-31T11:42:44;93807.31;;;30.11;49.97
11049;BME280;5577;42.706;23.160;2023-07-31T11:45:28;93814.81;;;30.36;47.15
11049;BME280;5577;42.706;23.160;2023-07-31T11:48:34;93821.38;;;30.70;47.09
11049;BME280;5577;42.706;23.160;2023-07-31T11:51:22;93812.50;;;30.29;48.69
11049;BME280;5577;42.706;23.160;2023-07-31T11:54:06;93810.00;;;30.26;50.55
11049;BME280;5577;42.706;23.160;2023-07-31T11:56:51;93801.66;;;30.35;51.70
11049;BME280;5577;42.706;23.160;2023-07-31T11:59:35;93786.59;;;30.90;49.77
11049;BME280;5577;42.706;23.160;2023-07-31T12:02:20;93795.63;;;31.27;49.87
11049;BME280;5577;42.706;23.160;2023-07-31T12:05:05;93794.38;;;31.28;47.51
11049;BME280;5577;42.706;23.160;2023-07-31T12:07:52;93798.03;;;30.89;46.37
11049;BME280;5577;42.706;23.160;2023-07-31T12:10:38;93791.94;;;31.05;45.78
11049;BME280;5577;42.706;23.160;2023-07-31T12:13:25;93786.81;;;30.87;47.26
11049;BME280;5577;42.706;23.160;2023-07-31T12:16:10;93791.97;;;30.34;48.68
11049;BME280;5577;42.706;23.160;2023-07-31T12:18:54;93785.66;;;29.87;47.89
11049;BME280;5577;42.706;23.160;2023-07-31T12:21:38;93785.56;;;29.62;48.79
11049;BME280;5577;42.706;23.160;2023-07-31T12:24:22;93759.13;;;29.53;49.94
11049;BME280;5577;42.706;23.160;2023-07-31T12:27:13;93770.28;;;29.35;49.71
11049;BME280;5577;42.706;23.160;2023-07-31T12:29:58;93780.34;;;29.29;50.94
11049;BME280;5577;42.706;23.160;2023-07-31T12:32:42;93773.06;;;29.06;51.36
11049;BME280;5577;42.706;23.160;2023-07-31T12:35:34;93767.03;;;28.59;52.16
11049;BME280;5577;42.706;23.160;2023-07-31T12:38:18;93781.53;;;28.27;52.78
11049;BME280;5577;42.706;23.160;2023-07-31T12:41:02;93774.97;;;27.95;54.62
11049;BME280;5577;42.706;23.160;2023-07-31T12:43:46;93772.34;;;28.01;54.29
11049;BME280;5577;42.706;23.160;2023-07-31T12:46:30;93771.06;;;28.49;54.71
11049;BME280;5577;42.706;23.160;2023-07-31T12:49:14;93759.31;;;29.15;54.46
11049;BME280;5577;42.706;23.160;2023-07-31T12:51:58;93767.44;;;29.44;52.62
11049;BME280;5577;42.706;23.160;2023-07-31T12:54:41;93765.53;;;29.50;53.71
11049;BME280;5577;42.706;23.160;2023-07-31T12:57:25;93764.03;;;29.84;49.47
11049;BME280;5577;42.706;23.160;2023-07-31T13:00:10;93753.94;;;29.90;48.86
11049;BME280;5577;42.706;23.160;2023-07-31T13:02:54;93757.06;;;29.63;48.86
11049;BME280;5577;42.706;23.160;2023-07-31T13:05:38;93751.81;;;29.10;48.54
11049;BME280;5577;42.706;23.160;2023-07-31T13:08:22;93752.97;;;28.60;48.81
11049;BME280;5577;42.706;23.160;2023-07-31T13:11:06;93751.59;;;28.27;50.44
11049;BME280;5577;42.706;23.160;2023-07-31T13:13:50;93736.06;;;27.80;50.96
11049;BME280;5577;42.706;23.160;2023-07-31T13:16:34;93759.78;;;28.03;49.60
11049;BME280;5577;42.706;23.160;2023-07-31T13:19:18;93757.81;;;28.56;48.49
11049;BME280;5577;42.706;23.160;2023-07-31T13:22:02;93717.91;;;28.82;48.32
11049;BME280;5577;42.706;23.160;2023-07-31T13:24:46;93752.03;;;29.41;49.81
11049;BME280;5577;42.706;23.160;2023-07-31T13:27:31;93758.53;;;29.29;47.73
11049;BME280;5577;42.706;23.160;2023-07-31T13:30:15;93756.13;;;29.17;45.92
11049;BME280;5577;42.706;23.160;2023-07-31T13:32:59;93744.78;;;28.89;47.27
11049;BME280;5577;42.706;23.160;2023-07-31T13:35:43;93755.75;;;28.95;47.63
11049;BME280;5577;42.706;23.160;2023-07-31T13:38:27;93755.66;;;28.89;47.32
11049;BME280;5577;42.706;23.160;2023-07-31T13:41:11;93745.31;;;28.93;48.25
11049;BME280;5577;42.706;23.160;2023-07-31T13:43:55;93742.31;;;29.20;48.16
11049;BME280;5577;42.706;23.160;2023-07-31T13:46:39;93745.31;;;29.57;48.08
11049;BME280;5577;42.706;23.160;2023-07-31T13:49:23;93745.81;;;29.95;47.40
11049;BME280;5577;42.706;23.160;2023-07-31T13:52:07;93746.16;;;29.83;46.35
11049;BME280;5577;42.706;23.160;2023-07-31T13:54:51;93739.63;;;29.75;46.20
11049;BME280;5577;42.706;23.160;2023-07-31T13:57:35;93745.81;;;29.75;46.28
11049;BME280;5577;42.706;23.160;2023-07-31T14:00:19;93742.00;;;29.87;46.10
11049;BME280;5577;42.706;23.160;2023-07-31T14:03:03;93752.63;;;29.85;48.02
11049;BME280;5577;42.706;23.160;2023-07-31T14:05:47;93747.75;;;29.20;48.76
11049;BME280;5577;42.706;23.160;2023-07-31T14:08:31;93731.91;;;29.04;49.36
11049;BME280;5577;42.706;23.160;2023-07-31T14:11:15;93752.19;;;29.18;49.10
11049;BME280;5577;42.706;23.160;2023-07-31T14:13:59;93752.28;;;29.23;48.79
11049;BME280;5577;42.706;23.160;2023-07-31T14:16:43;93741.91;;;29.62;51.01
11049;BME280;5577;42.706;23.160;2023-07-31T14:19:27;93749.63;;;29.63;51.90
11049;BME280;5577;42.706;23.160;2023-07-31T14:22:11;93737.72;;;29.46;51.33
11049;BME280;5577;42.706;23.160;2023-07-31T14:24:55;93743.63;;;29.59;50.51
11049;BME280;5577;42.706;23.160;2023-07-31T14:27:39;93746.06;;;29.23;49.42
11049;BME280;5577;42.706;23.160;2023-07-31T14:30:23;93739.88;;;29.08;50.18
11049;BME280;5577;42.706;23.160;2023-07-31T14:33:07;93741.00;;;29.16;51.52
11049;BME280;5577;42.706;23.160;2023-07-31T14:35:51;93740.22;;;29.15;51.34
11049;BME280;5577;42.706;23.160;2023-07-31T14:38:36;93739.81;;;29.02;49.71